createdAt,value
2023-01-02T00:00:40.887Z,9.00
2023-01-02T00:03:08.539Z,8.85
2023-01-02T00:05:36.803Z,9.05
2023-01-02T00:08:04.329Z,9.40
2023-01-02T00:10:31.847Z,9.30
2023-01-02T00:13:00.743Z,8.95
2023-01-02T00:15:28.361Z,8.45
2023-01-02T00:17:55.907Z,9.35
2023-01-02T00:20:23.464Z,8.18
2023-01-02T00:22:51.065Z,9.27
2023-01-02T00:25:18.696Z,8.68
2023-01-02T00:27:46.204Z,8.88
2023-01-02T00:30:15.298Z,9.63
2023-01-02T00:32:42.915Z,9.20
2023-01-02T00:35:10.637Z,8.98
2023-01-02T00:37:38.559Z,8.82
2023-01-02T00:40:07.558Z,8.07
2023-01-02T00:42:35.117Z,7.97
2023-01-02T00:45:02.695Z,7.50
2023-01-02T00:47:31.655Z,7.60
2023-01-02T00:49:59.228Z,10.23
2023-01-02T00:52:27.112Z,13.00
2023-01-02T00:54:54.664Z,8.63
2023-01-02T00:57:22.239Z,8.95
2023-01-02T00:59:49.802Z,8.90
2023-01-02T01:02:17.503Z,9.23
2023-01-02T01:04:46.459Z,11.07
2023-01-02T01:07:14.013Z,9.27
2023-01-02T01:09:41.665Z,8.77
2023-01-02T01:12:09.308Z,8.90
2023-01-02T01:14:36.910Z,8.07
2023-01-02T01:17:04.481Z,7.68
2023-01-02T01:19:32.181Z,8.40
2023-01-02T01:22:01.105Z,7.18
2023-01-02T01:24:29.140Z,7.57
2023-01-02T01:26:56.683Z,6.70
2023-01-02T01:29:24.329Z,6.50
2023-01-02T01:31:51.936Z,6.75
2023-01-02T01:34:20.099Z,7.55
2023-01-02T01:36:47.724Z,7.40
2023-01-02T01:39:16.785Z,6.80
2023-01-02T01:41:44.330Z,7.13
2023-01-02T01:44:43.231Z,6.70
2023-01-02T01:47:18.532Z,6.78
2023-01-02T01:49:46.863Z,7.03
2023-01-02T01:52:17.261Z,8.07
2023-01-02T01:54:51.351Z,8.27
2023-01-02T01:57:24.355Z,7.57
2023-01-02T01:59:52.692Z,7.68
2023-01-02T02:02:24.445Z,7.03
2023-01-02T02:04:52.403Z,6.10
2023-01-02T02:07:20.117Z,7.15
2023-01-02T02:09:56.126Z,6.88
2023-01-02T02:12:27.958Z,6.18
2023-01-02T02:14:55.973Z,6.90
2023-01-02T02:17:33.576Z,6.22
2023-01-02T02:20:20.774Z,7.18
2023-01-02T02:23:37.127Z,6.10
2023-01-02T02:26:53.261Z,6.50
2023-01-02T02:29:56.543Z,6.72
2023-01-02T02:32:31.164Z,6.00
2023-01-02T02:35:05.548Z,6.40
2023-01-02T02:37:41.209Z,5.97
2023-01-02T02:40:18.064Z,6.90
2023-01-02T02:42:56.120Z,6.25
2023-01-02T02:45:35.964Z,6.78
2023-01-02T02:48:12.310Z,6.70
2023-01-02T02:50:45.379Z,6.55
2023-01-02T02:53:19.364Z,6.95
2023-01-02T02:55:50.352Z,6.28
2023-01-02T02:58:19.822Z,6.10
2023-01-02T03:00:48.743Z,5.40
2023-01-02T03:03:18.161Z,5.88
2023-01-02T03:06:01.956Z,6.78
2023-01-02T03:08:34.895Z,5.75
2023-01-02T03:11:03.601Z,6.07
2023-01-02T03:13:42.448Z,5.60
2023-01-02T03:16:16.213Z,5.30
2023-01-02T03:21:27.963Z,5.50
2023-01-02T03:26:31.650Z,4.43
2023-01-02T03:29:04.691Z,4.78
2023-01-02T03:31:37.775Z,5.32
2023-01-02T03:34:09.566Z,5.80
2023-01-02T03:36:40.195Z,6.18
2023-01-02T03:39:11.793Z,5.38
2023-01-02T03:41:45.006Z,5.93
2023-01-02T03:44:14.657Z,5.95
2023-01-02T03:46:49.595Z,5.00
2023-01-02T03:49:23.245Z,5.65
2023-01-02T03:51:51.136Z,5.40
2023-01-02T03:54:19.742Z,5.20
2023-01-02T03:56:58.690Z,4.78
2023-01-02T03:59:35.115Z,5.68
2023-01-02T04:02:11.219Z,5.03
2023-01-02T04:04:50.387Z,5.15
2023-01-02T04:07:24.516Z,5.38
2023-01-02T04:09:53.020Z,5.72
2023-01-02T04:12:24.068Z,6.20
2023-01-02T04:14:56.805Z,5.68
2023-01-02T04:17:29.338Z,6.32
2023-01-02T04:20:01.786Z,5.23
2023-01-02T04:22:33.497Z,5.15
2023-01-02T04:25:08.075Z,5.30
2023-01-02T04:27:40.210Z,6.43
2023-01-02T04:30:08.476Z,6.75
2023-01-02T04:32:41.836Z,6.63
2023-01-02T04:37:41.836Z,6.63
2023-01-02T04:40:14.472Z,6.72
2023-01-02T04:42:43.114Z,6.93
2023-01-02T04:45:11.479Z,5.65
2023-01-02T04:47:40.552Z,5.55
2023-01-02T04:50:09.386Z,5.13
2023-01-02T04:52:37.749Z,5.38
2023-01-02T04:55:07.659Z,4.80
2023-01-02T04:57:35.530Z,5.43
2023-01-02T05:00:03.276Z,6.07
2023-01-02T05:02:35.695Z,5.65
2023-01-02T05:05:05.271Z,5.77
2023-01-02T05:07:33.848Z,5.70
2023-01-02T05:10:01.458Z,4.88
2023-01-02T05:12:29.015Z,5.22
2023-01-02T05:14:56.624Z,5.25
2023-01-02T05:17:24.208Z,4.88
2023-01-02T05:19:51.722Z,5.20
2023-01-02T05:22:38.112Z,5.30
2023-01-02T05:25:06.734Z,4.90
2023-01-02T05:27:34.358Z,5.20
2023-01-02T05:30:01.890Z,5.13
2023-01-02T05:32:29.527Z,4.68
2023-01-02T05:34:57.704Z,5.47
2023-01-02T05:37:26.559Z,5.45
2023-01-02T05:39:54.093Z,4.95
2023-01-02T05:42:21.735Z,5.32
2023-01-02T05:44:49.413Z,5.22
2023-01-02T05:47:17.417Z,6.22
2023-01-02T05:49:45.002Z,5.38
2023-01-02T05:52:12.565Z,5.15
2023-01-02T05:54:41.770Z,4.80
2023-01-02T05:57:09.372Z,4.65
2023-01-02T05:59:36.989Z,5.05
2023-01-02T06:02:04.736Z,5.50
2023-01-02T06:04:32.425Z,4.18
2023-01-02T06:07:00.018Z,4.72
2023-01-02T06:09:27.605Z,6.15
2023-01-02T06:11:56.588Z,5.20
2023-01-02T06:14:25.044Z,4.95
2023-01-02T06:16:52.714Z,4.68
2023-01-02T06:19:20.325Z,4.10
2023-01-02T06:21:47.934Z,5.13
2023-01-02T06:24:15.459Z,4.43
2023-01-02T06:26:43.112Z,4.55
2023-01-02T06:29:12.002Z,4.20
2023-01-02T06:31:41.121Z,4.35
2023-01-02T06:34:10.852Z,4.05
2023-01-02T06:36:38.383Z,4.45
2023-01-02T06:39:06.268Z,4.40
2023-01-02T06:41:34.019Z,5.07
2023-01-02T06:44:01.623Z,3.88
2023-01-02T06:46:30.503Z,5.80
2023-01-02T06:48:58.100Z,7.60
2023-01-02T06:51:25.828Z,4.35
2023-01-02T06:53:53.427Z,3.70
2023-01-02T06:56:21.985Z,3.78
2023-01-02T06:58:49.948Z,3.47
2023-01-02T07:01:19.631Z,3.45
2023-01-02T07:03:49.590Z,4.00
2023-01-02T07:06:19.919Z,3.58
2023-01-02T07:08:48.288Z,3.10
2023-01-02T07:11:17.694Z,3.88
2023-01-02T07:13:47.128Z,3.65
2023-01-02T07:16:16.701Z,4.03
2023-01-02T07:18:44.772Z,3.72
2023-01-02T07:21:15.432Z,6.75
2023-01-02T07:23:43.085Z,4.72
2023-01-02T07:26:11.042Z,4.25
2023-01-02T07:28:39.238Z,4.23
2023-01-02T07:31:08.708Z,3.80
2023-01-02T07:33:36.708Z,3.88
2023-01-02T07:36:06.751Z,3.42
2023-01-02T07:38:35.941Z,3.78
2023-01-02T07:41:03.528Z,3.30
2023-01-02T07:43:31.108Z,3.70
2023-01-02T07:46:03.193Z,3.75
2023-01-02T07:48:30.797Z,3.17
2023-01-02T07:51:01.425Z,3.67
2023-01-02T07:53:29.222Z,3.70
2023-01-02T07:55:59.002Z,3.40
2023-01-02T07:58:27.234Z,3.40
2023-01-02T08:00:59.712Z,5.00
2023-01-02T08:03:32.241Z,4.30
2023-01-02T08:06:07.256Z,4.20
2023-01-02T08:08:34.852Z,4.28
2023-01-02T08:11:06.961Z,3.40
2023-01-02T08:13:34.564Z,3.58
2023-01-02T08:16:05.637Z,3.22
2023-01-02T08:18:33.672Z,2.85
2023-01-02T08:21:01.279Z,2.83
2023-01-02T08:23:28.922Z,2.95
2023-01-02T08:25:58.836Z,2.80
2023-01-02T08:28:28.448Z,2.97
2023-01-02T08:30:56.352Z,2.85
2023-01-02T08:33:24.407Z,2.97
2023-01-02T08:35:52.085Z,2.95
2023-01-02T08:38:19.892Z,3.10
2023-01-02T08:40:47.427Z,2.72
2023-01-02T08:43:16.294Z,2.30
2023-01-02T08:45:45.656Z,2.20
2023-01-02T08:48:20.227Z,2.67
2023-01-02T08:50:49.125Z,2.78
2023-01-02T08:53:16.855Z,2.65
2023-01-02T08:55:44.472Z,2.92
2023-01-02T08:58:12.234Z,2.72
2023-01-02T09:00:39.854Z,2.33
2023-01-02T09:03:08.744Z,2.63
2023-01-02T09:05:36.265Z,2.15
2023-01-02T09:08:03.914Z,2.83
2023-01-02T09:10:31.451Z,3.53
2023-01-02T09:12:59.393Z,4.07
2023-01-02T09:15:26.976Z,2.92
2023-01-02T09:17:54.602Z,3.65
2023-01-02T09:20:23.476Z,3.03
2023-01-02T09:22:52.066Z,2.65
2023-01-02T09:25:24.101Z,2.92
2023-01-02T09:27:52.491Z,2.88
2023-01-02T09:30:20.393Z,2.28
2023-01-02T09:32:50.827Z,2.40
2023-01-02T09:35:18.493Z,2.85
2023-01-02T09:37:47.389Z,2.47
2023-01-02T09:40:15.373Z,1.80
2023-01-02T09:42:44.726Z,3.78
2023-01-02T09:45:14.356Z,1.30
2023-01-02T09:47:45.883Z,2.00
2023-01-02T09:50:17.227Z,1.08
2023-01-02T09:52:51.897Z,2.15
2023-01-02T09:55:32.333Z,1.02
2023-01-02T09:58:11.803Z,1.10
2023-01-02T10:00:40.175Z,0.90
2023-01-02T10:03:19.935Z,0.85
2023-01-02T10:06:04.028Z,1.20
2023-01-02T10:08:42.314Z,1.05
2023-01-02T10:11:22.301Z,1.60
2023-01-02T10:16:48.556Z,1.38
2023-01-02T10:19:21.399Z,1.42
2023-01-02T10:21:52.131Z,1.20
2023-01-02T10:24:26.804Z,1.10
2023-01-02T10:26:55.014Z,1.50
2023-01-02T10:29:29.361Z,0.95
2023-01-02T10:32:00.961Z,0.90
2023-01-02T10:34:39.300Z,1.17
2023-01-02T10:37:13.167Z,1.45
2023-01-02T10:39:43.235Z,0.85
2023-01-02T10:42:13.043Z,1.27
2023-01-02T10:44:41.589Z,0.93
2023-01-02T10:47:19.110Z,2.85
2023-01-02T10:49:47.893Z,1.15
2023-01-02T10:52:20.901Z,0.90
2023-01-02T10:54:58.613Z,1.30
2023-01-02T10:57:39.607Z,1.60
2023-01-02T11:00:28.080Z,1.05
2023-01-02T11:02:58.759Z,1.50
2023-01-02T11:05:28.824Z,1.20
2023-01-02T11:07:57.025Z,1.00
2023-01-02T11:10:29.204Z,1.17
2023-01-02T11:12:57.432Z,1.23
2023-01-02T11:15:27.066Z,1.65
2023-01-02T11:17:55.739Z,2.70
2023-01-02T11:20:27.563Z,1.48
2023-01-02T11:22:57.859Z,1.63
2023-01-02T11:25:29.101Z,1.10
2023-01-02T11:28:01.405Z,1.20
2023-01-02T11:30:35.215Z,0.90
2023-01-02T11:33:07.885Z,1.08
2023-01-02T11:35:39.564Z,1.20
2023-01-02T11:38:14.812Z,1.38
2023-01-02T11:40:57.924Z,1.20
2023-01-02T11:43:48.594Z,1.33
2023-01-02T11:46:36.539Z,1.70
2023-01-02T11:49:07.497Z,1.33
2023-01-02T11:51:37.888Z,1.27
2023-01-02T11:54:13.186Z,1.48
2023-01-02T11:56:45.527Z,1.00
2023-01-02T11:59:18.307Z,1.40
2023-01-02T12:01:55.090Z,1.35
2023-01-02T12:04:24.211Z,1.20
2023-01-02T12:07:16.968Z,2.10
2023-01-02T12:09:56.190Z,1.25
2023-01-02T12:12:40.485Z,1.63
2023-01-02T12:15:35.461Z,1.48
2023-01-02T12:18:14.553Z,1.33
2023-01-02T12:20:52.285Z,1.60
2023-01-02T12:23:36.137Z,1.55
2023-01-02T12:26:10.299Z,1.83
2023-01-02T12:29:10.296Z,1.70
2023-01-02T12:32:06.673Z,2.03
2023-01-02T12:34:51.187Z,1.92
2023-01-02T12:37:36.958Z,2.00
2023-01-02T12:40:17.228Z,1.98
2023-01-02T12:43:10.211Z,2.55
2023-01-02T12:45:47.911Z,1.73
2023-01-02T12:48:31.806Z,1.98
2023-01-02T12:51:11.245Z,2.10
2023-01-02T12:54:20.246Z,2.15
2023-01-02T12:56:52.677Z,2.20
2023-01-02T12:59:51.545Z,2.17
2023-01-02T13:02:38.035Z,1.40
2023-01-02T13:05:13.515Z,1.90
2023-01-02T13:07:46.698Z,2.28
2023-01-02T13:10:18.317Z,1.80
2023-01-02T13:12:47.510Z,1.60
2023-01-02T13:15:20.587Z,1.63
2023-01-02T13:18:01.596Z,2.00
2023-01-02T13:20:42.329Z,1.70
2023-01-02T13:23:26.634Z,1.73
2023-01-02T13:25:58.029Z,2.22
2023-01-02T13:28:25.593Z,2.13
2023-01-02T13:31:44.222Z,1.55
2023-01-02T13:33:55.517Z,2.20
2023-01-02T13:36:28.286Z,2.28
2023-01-02T13:38:59.314Z,1.95
2023-01-02T13:41:29.081Z,1.95
2023-01-02T13:43:59.871Z,1.70
2023-01-02T13:47:02.236Z,2.15
2023-01-02T13:49:21.672Z,3.20
2023-01-02T13:51:50.699Z,3.28
2023-01-02T13:54:20.960Z,2.17
2023-01-02T13:57:17.479Z,1.70
2023-01-02T13:59:52.483Z,2.95
2023-01-02T14:02:21.358Z,2.17
2023-01-02T14:04:49.213Z,2.33
2023-01-02T14:07:44.061Z,2.08
2023-01-02T14:10:30.105Z,2.90
2023-01-02T14:13:03.541Z,2.08
2023-01-02T14:18:04.719Z,1.95
2023-01-02T14:20:34.275Z,1.70
2023-01-02T14:23:07.535Z,2.42
2023-01-02T14:25:45.434Z,2.72
2023-01-02T14:28:24.090Z,2.28
2023-01-02T14:30:52.064Z,2.40
2023-01-02T14:33:28.637Z,4.95
2023-01-02T14:35:58.644Z,5.72
2023-01-02T14:38:31.442Z,4.28
2023-01-02T14:41:19.366Z,5.25
2023-01-02T14:43:47.312Z,6.25
2023-01-02T14:46:18.661Z,3.95
2023-01-02T14:48:54.188Z,4.18
2023-01-02T14:51:26.753Z,2.83
2023-01-02T14:53:58.791Z,3.70
2023-01-02T14:56:32.243Z,3.70
2023-01-02T15:01:42.296Z,2.78
2023-01-02T15:04:20.158Z,4.10
2023-01-02T15:06:50.866Z,5.90
2023-01-02T15:09:30.347Z,3.22
2023-01-02T15:12:32.848Z,2.67
2023-01-02T15:15:00.417Z,2.95
2023-01-02T15:17:28.075Z,3.60
2023-01-02T15:19:55.672Z,6.05
2023-01-02T15:22:29.895Z,5.55
2023-01-02T15:24:58.824Z,4.47
2023-01-02T15:27:29.258Z,4.55
2023-01-02T15:29:59.231Z,4.50
2023-01-02T15:32:29.837Z,2.80
2023-01-02T15:35:13.382Z,3.20
2023-01-02T15:37:45.537Z,3.50
2023-01-02T15:40:18.033Z,4.15
2023-01-02T15:43:04.264Z,2.37
2023-01-02T15:45:32.961Z,3.15
2023-01-02T15:48:01.023Z,4.13
2023-01-02T15:50:30.622Z,3.67
2023-01-02T15:53:00.271Z,8.57
2023-01-02T15:55:34.073Z,2.95
2023-01-02T15:58:21.070Z,2.30
2023-01-02T16:00:48.722Z,3.42
2023-01-02T16:04:03.153Z,8.73
2023-01-02T16:06:26.897Z,5.53
2023-01-02T16:08:56.848Z,6.35
2023-01-02T16:11:26.620Z,3.88
2023-01-02T16:14:16.452Z,2.20
2023-01-02T16:16:49.914Z,2.80
2023-01-02T16:19:22.940Z,2.80
2023-01-02T16:21:53.262Z,1.92
2023-01-02T16:24:24.551Z,2.08
2023-01-02T16:26:53.791Z,2.10
2023-01-02T16:29:24.073Z,2.05
2023-01-02T16:31:54.922Z,2.00
2023-01-02T16:34:31.578Z,1.95
2023-01-02T16:37:33.461Z,2.10
2023-01-02T16:41:00.114Z,2.42
2023-01-02T16:43:34.433Z,1.98
2023-01-02T16:46:04.343Z,2.30
2023-01-02T16:48:33.307Z,2.53
2023-01-02T16:51:00.908Z,2.67
2023-01-02T16:53:30.646Z,1.88
2023-01-02T16:55:58.503Z,2.33
2023-01-02T16:58:26.425Z,2.35
2023-01-02T17:00:56.615Z,2.10
2023-01-02T17:03:26.272Z,1.83
2023-01-02T17:06:02.046Z,2.92
2023-01-02T17:08:31.194Z,1.30
2023-01-02T17:10:59.486Z,1.90
2023-01-02T17:13:27.496Z,1.67
2023-01-02T17:15:56.996Z,1.65
2023-01-02T17:18:25.322Z,1.00
2023-01-02T17:20:53.210Z,1.50
2023-01-02T17:23:21.023Z,1.88
2023-01-02T17:25:49.413Z,1.70
2023-01-02T17:28:17.239Z,2.00
2023-01-02T17:30:46.028Z,1.35
2023-01-02T17:33:14.916Z,1.00
2023-01-02T17:35:43.494Z,1.27
2023-01-02T17:38:11.091Z,1.00
2023-01-02T17:40:39.000Z,1.52
2023-01-02T17:43:07.365Z,1.00
2023-01-02T17:45:34.977Z,0.75
2023-01-02T17:48:10.435Z,0.85
2023-01-02T17:50:40.402Z,0.80
2023-01-02T17:53:08.546Z,0.60
2023-01-02T17:55:36.288Z,0.80
2023-01-02T17:58:04.109Z,0.75
2023-01-02T18:00:31.717Z,0.60
2023-01-02T18:02:59.410Z,0.43
2023-01-02T18:05:27.073Z,0.50
2023-01-02T18:07:56.013Z,0.65
2023-01-02T18:10:29.219Z,0.68
2023-01-02T18:13:00.367Z,0.50
2023-01-02T18:15:29.179Z,0.80
2023-01-02T18:17:57.561Z,0.47
2023-01-02T18:20:25.134Z,0.52
2023-01-02T18:22:53.456Z,0.38
2023-01-02T18:25:24.582Z,0.30
2023-01-02T18:27:56.202Z,0.40
2023-01-02T18:30:25.897Z,0.47
2023-01-02T18:33:01.627Z,0.30
2023-01-02T18:35:57.142Z,0.63
2023-01-02T18:38:28.465Z,0.40
2023-01-02T18:40:57.556Z,0.40
2023-01-02T18:43:29.805Z,0.80
2023-01-02T18:46:01.370Z,0.47
2023-01-02T18:48:29.164Z,1.92
2023-01-02T18:50:59.446Z,3.50
2023-01-02T18:53:30.946Z,1.20
2023-01-02T18:56:02.740Z,0.88
2023-01-02T18:58:40.848Z,1.20
2023-01-02T19:01:31.725Z,0.60
2023-01-02T19:04:24.066Z,0.50
2023-01-02T19:06:56.036Z,0.60
2023-01-02T19:09:29.304Z,0.80
2023-01-02T19:12:18.963Z,0.60
2023-01-02T19:14:46.566Z,0.60
2023-01-02T19:17:22.786Z,0.40
2023-01-02T19:19:50.776Z,0.50
2023-01-02T19:22:20.113Z,0.88
2023-01-02T19:24:47.704Z,0.60
2023-01-02T19:27:27.575Z,0.63
2023-01-02T19:29:55.608Z,0.77
2023-01-02T19:32:35.569Z,1.00
2023-01-02T19:35:31.622Z,0.80
2023-01-02T19:38:00.508Z,0.50
2023-01-02T19:40:28.163Z,0.70
2023-01-02T19:42:57.119Z,1.30
2023-01-02T19:45:26.329Z,1.45
2023-01-02T19:47:54.419Z,1.30
2023-01-02T19:50:23.679Z,0.90
2023-01-02T19:52:51.620Z,1.02
2023-01-02T19:55:19.939Z,1.60
2023-01-02T19:57:48.212Z,1.20
2023-01-02T20:00:19.211Z,1.20
2023-01-02T20:02:48.842Z,1.77
2023-01-02T20:05:21.395Z,1.80
2023-01-02T20:10:18.278Z,1.00
2023-01-02T20:12:45.970Z,0.90
2023-01-02T20:15:17.127Z,1.17
2023-01-02T20:17:46.644Z,1.08
2023-01-02T20:20:16.413Z,1.00
2023-01-02T20:22:44.389Z,0.70
2023-01-02T20:25:12.910Z,0.65
2023-01-02T20:27:40.756Z,0.70
2023-01-02T20:30:09.953Z,0.75
2023-01-02T20:32:37.688Z,1.30
2023-01-02T20:35:07.555Z,1.35
2023-01-02T20:37:35.255Z,1.83
2023-01-02T20:40:03.083Z,1.45
2023-01-02T20:42:32.790Z,1.45
2023-01-02T20:45:00.534Z,2.10
2023-01-02T20:47:28.089Z,1.85
2023-01-02T20:49:55.721Z,1.50
2023-01-02T20:52:24.638Z,2.75
2023-01-02T20:54:52.302Z,1.10
2023-01-02T20:57:20.063Z,1.58
2023-01-02T20:59:47.777Z,1.17
2023-01-02T21:02:15.505Z,1.45
2023-01-02T21:04:43.154Z,1.00
2023-01-02T21:07:10.771Z,0.95
2023-01-02T21:09:39.702Z,1.08
2023-01-02T21:12:28.282Z,1.77
2023-01-02T21:14:55.910Z,1.50
2023-01-02T21:17:23.558Z,0.77
2023-01-02T21:19:51.122Z,0.98
2023-01-02T21:22:18.724Z,1.33
2023-01-02T21:24:47.623Z,1.00
2023-01-02T21:27:15.530Z,0.80
2023-01-02T21:29:45.516Z,0.82
2023-01-02T21:32:13.296Z,0.60
2023-01-02T21:34:40.867Z,0.80
2023-01-02T21:37:08.412Z,0.70
2023-01-02T21:39:36.362Z,0.57
2023-01-02T21:42:17.540Z,0.82
2023-01-02T21:44:47.525Z,0.73
2023-01-02T21:47:15.619Z,0.77
2023-01-02T21:49:43.479Z,0.60
2023-01-02T21:52:11.335Z,0.90
2023-01-02T21:54:38.978Z,1.52
2023-01-02T21:57:07.943Z,0.90
2023-01-02T21:59:35.741Z,1.00
2023-01-02T22:02:04.590Z,0.77
2023-01-02T22:04:32.748Z,0.70
2023-01-02T22:09:50.096Z,0.70
2023-01-02T22:12:19.067Z,0.75
2023-01-02T22:14:46.614Z,0.68
2023-01-02T22:17:14.256Z,0.80
2023-01-02T22:19:41.804Z,1.00
2023-01-02T22:22:09.339Z,1.00
2023-01-02T22:24:44.071Z,0.52
2023-01-02T22:27:14.441Z,0.90
2023-01-02T22:30:19.494Z,0.70
2023-01-02T22:32:33.567Z,0.60
2023-01-02T22:35:02.824Z,0.38
2023-01-02T22:37:30.596Z,0.60
2023-01-02T22:39:58.143Z,0.60
2023-01-02T22:43:03.204Z,0.40
2023-01-02T22:45:36.288Z,0.50
2023-01-02T22:48:09.205Z,0.50
2023-01-02T22:50:43.376Z,0.57
2023-01-02T22:53:18.493Z,0.70
2023-01-02T22:55:46.254Z,0.60
2023-01-02T22:58:14.068Z,0.60
2023-01-02T23:00:43.224Z,0.75
2023-01-02T23:03:14.245Z,0.57
2023-01-02T23:05:42.460Z,0.52
2023-01-02T23:08:10.265Z,0.50
2023-01-02T23:10:37.957Z,0.50
2023-01-02T23:13:05.733Z,0.50
2023-01-02T23:15:33.345Z,0.50
2023-01-02T23:18:19.832Z,0.57
2023-01-02T23:20:47.435Z,0.50
2023-01-02T23:23:15.067Z,0.50
2023-01-02T23:25:44.342Z,0.50
2023-01-02T23:28:26.009Z,0.50
2023-01-02T23:30:59.527Z,0.40
2023-01-02T23:33:28.485Z,0.47
2023-01-02T23:35:56.120Z,0.50
2023-01-02T23:38:23.789Z,0.63
2023-01-02T23:40:51.367Z,0.38
2023-01-02T23:43:18.962Z,0.60
2023-01-02T23:45:46.537Z,0.70
2023-01-02T23:48:14.069Z,0.63
2023-01-02T23:50:46.149Z,0.40
2023-01-02T23:53:14.086Z,0.57
2023-01-02T23:55:42.256Z,0.85
2023-01-02T23:58:11.048Z,0.60
